Empalme San Vicente, Argentina
Current Conditions -  °F | °C
As of 12:00 AM on Sunday 21 Dec 2014 (Local Time) from SAEZ Reporting Station
Overcast Overcast  
Wind Chill: 66°   Ceiling: 1500
Heat Index: 66°   Visibility: 6mi
Dew Point: 61°   Wind: 15mph
Humidity: 83%   Direction: 160°SSE
Pressure: 29.68"   Gusts: NA
Location:  34.99°S, 58.38°W
Report Text: SAEZ 210300Z 16013KT 9999 OVC015 19/16 Q1005
Loading
Personal Weather Stations






























Interactive Weather Map New forecast layout! Learn more

10-Day Weather Forecast

Advertisements
Track Severe Weather on mobile